sensor_id;sensor_type;location;lat;lon;timestamp;pressure;altitude;pressure_sealevel;temperature;humidity
51249;BME280;39642;47.556;18.728;2022-11-15T00:30:17;100051.94;;;21.57;41.74
51249;BME280;39642;47.556;18.728;2022-11-15T00:32:43;100049.28;;;21.57;41.78
51249;BME280;39642;47.556;18.728;2022-11-15T00:35:09;100044.81;;;21.58;41.76
51249;BME280;39642;47.556;18.728;2022-11-15T00:37:35;100041.31;;;21.57;41.61
51249;BME280;39642;47.556;18.728;2022-11-15T00:40:01;100044.81;;;21.58;41.53
51249;BME280;39642;47.556;18.728;2022-11-15T00:42:27;100045.75;;;21.57;41.50
51249;BME280;39642;47.556;18.728;2022-11-15T00:44:53;100040.44;;;21.57;41.69
51249;BME280;39642;47.556;18.728;2022-11-15T00:47:18;100044.81;;;21.58;41.67
51249;BME280;39642;47.556;18.728;2022-11-15T00:49:44;100042.25;;;21.56;41.62
51249;BME280;39642;47.556;18.728;2022-11-15T00:52:10;100044.06;;;21.56;41.63
51249;BME280;39642;47.556;18.728;2022-11-15T00:54:36;100037.06;;;21.55;41.62
51249;BME280;39642;47.556;18.728;2022-11-15T00:57:02;100041.47;;;21.54;41.79
51249;BME280;39642;47.556;18.728;2022-11-15T00:59:28;100041.47;;;21.54;41.59
51249;BME280;39642;47.556;18.728;2022-11-15T01:01:54;100031.84;;;21.53;41.73
51249;BME280;39642;47.556;18.728;2022-11-15T01:04:20;100017.75;;;21.53;41.55
51249;BME280;39642;47.556;18.728;2022-11-15T01:06:46;100020.41;;;21.53;41.71
51249;BME280;39642;47.556;18.728;2022-11-15T01:09:11;100015.19;;;21.51;41.67
51249;BME280;39642;47.556;18.728;2022-11-15T01:11:37;100013.47;;;21.50;41.70
51249;BME280;39642;47.556;18.728;2022-11-15T01:14:03;100008.16;;;21.50;41.59
51249;BME280;39642;47.556;18.728;2022-11-15T01:16:29;100009.87;;;21.51;41.52
51249;BME280;39642;47.556;18.728;2022-11-15T01:18:55;100012.53;;;21.51;41.55
51249;BME280;39642;47.556;18.728;2022-11-15T01:21:21;100004.59;;;21.51;41.40
51249;BME280;39642;47.556;18.728;2022-11-15T01:23:47;100003.63;;;21.52;41.48
51249;BME280;39642;47.556;18.728;2022-11-15T01:26:14;100011.56;;;21.52;41.41
51249;BME280;39642;47.556;18.728;2022-11-15T01:28:41;100006.28;;;21.52;41.48
51249;BME280;39642;47.556;18.728;2022-11-15T01:31:13;99998.31;;;21.52;41.33
51249;BME280;39642;47.556;18.728;2022-11-15T01:33:39;100000.06;;;21.53;41.34
51249;BME280;39642;47.556;18.728;2022-11-15T01:36:06;100000.06;;;21.53;41.40
51249;BME280;39642;47.556;18.728;2022-11-15T01:38:33;99989.44;;;21.53;41.39
51249;BME280;39642;47.556;18.728;2022-11-15T01:41:00;99993.78;;;21.54;41.34
51249;BME280;39642;47.556;18.728;2022-11-15T01:43:34;99987.66;;;21.54;41.22
51249;BME280;39642;47.556;18.728;2022-11-15T01:46:29;99992.94;;;21.54;41.22
51249;BME280;39642;47.556;18.728;2022-11-15T01:49:05;99988.50;;;21.54;41.20
51249;BME280;39642;47.556;18.728;2022-11-15T01:51:36;99985.84;;;21.54;41.19
51249;BME280;39642;47.556;18.728;2022-11-15T01:54:09;99986.81;;;21.53;41.11
51249;BME280;39642;47.556;18.728;2022-11-15T01:56:43;99981.50;;;21.53;41.13
51249;BME280;39642;47.556;18.728;2022-11-15T01:59:11;99985.00;;;21.54;41.17
51249;BME280;39642;47.556;18.728;2022-11-15T02:01:38;99983.31;;;21.53;41.24
51249;BME280;39642;47.556;18.728;2022-11-15T02:04:15;99985.97;;;21.53;41.25
51249;BME280;39642;47.556;18.728;2022-11-15T02:06:43;99976.38;;;21.50;41.41
51249;BME280;39642;47.556;18.728;2022-11-15T02:09:10;99982.53;;;21.51;41.35
51249;BME280;39642;47.556;18.728;2022-11-15T02:11:36;99967.50;;;21.51;41.11
51249;BME280;39642;47.556;18.728;2022-11-15T02:14:03;99969.38;;;21.49;41.30
51249;BME280;39642;47.556;18.728;2022-11-15T02:16:44;99976.38;;;21.50;41.33
51249;BME280;39642;47.556;18.728;2022-11-15T02:36:20;99949.16;;;21.48;41.05
51249;BME280;39642;47.556;18.728;2022-11-15T02:42:11;99939.41;;;21.49;40.99
51249;BME280;39642;47.556;18.728;2022-11-15T02:45:00;99943.72;;;21.50;40.92
51249;BME280;39642;47.556;18.728;2022-11-15T02:47:30;99947.22;;;21.50;40.97
51249;BME280;39642;47.556;18.728;2022-11-15T02:50:01;99944.56;;;21.50;41.12
51249;BME280;39642;47.556;18.728;2022-11-15T02:52:27;99946.31;;;21.51;40.96
51249;BME280;39642;47.556;18.728;2022-11-15T02:54:55;99942.81;;;21.51;40.85
51249;BME280;39642;47.556;18.728;2022-11-15T02:57:39;99933.06;;;21.51;40.94
51249;BME280;39642;47.556;18.728;2022-11-15T03:00:12;99938.28;;;21.53;40.93
51249;BME280;39642;47.556;18.728;2022-11-15T03:11:03;99926.78;;;21.52;40.90
51249;BME280;39642;47.556;18.728;2022-11-15T03:13:57;99916.41;;;21.49;40.71
51249;BME280;39642;47.556;18.728;2022-11-15T03:20:09;99907.59;;;21.49;40.91
51249;BME280;39642;47.556;18.728;2022-11-15T03:22:04;99911.94;;;21.50;40.80
51249;BME280;39642;47.556;18.728;2022-11-15T03:24:34;99908.53;;;21.48;40.87
51249;BME280;39642;47.556;18.728;2022-11-15T03:27:04;99902.37;;;21.47;40.93
51249;BME280;39642;47.556;18.728;2022-11-15T03:29:41;99902.37;;;21.47;41.04
51249;BME280;39642;47.556;18.728;2022-11-15T03:32:13;99903.34;;;21.46;41.09
51249;BME280;39642;47.556;18.728;2022-11-15T03:35:05;99898.03;;;21.46;41.00
51249;BME280;39642;47.556;18.728;2022-11-15T03:37:40;99897.28;;;21.44;40.93
51249;BME280;39642;47.556;18.728;2022-11-15T03:40:08;99896.31;;;21.45;40.83
51249;BME280;39642;47.556;18.728;2022-11-15T03:43:00;99889.22;;;21.46;40.77
51249;BME280;39642;47.556;18.728;2022-11-15T03:45:43;99889.22;;;21.46;40.68
51249;BME280;39642;47.556;18.728;2022-11-15T03:48:14;99891.88;;;21.46;40.71
51249;BME280;39642;47.556;18.728;2022-11-15T03:50:42;99889.22;;;21.46;40.70
51249;BME280;39642;47.556;18.728;2022-11-15T03:53:09;99900.69;;;21.46;40.56
51249;BME280;39642;47.556;18.728;2022-11-15T03:55:35;99896.25;;;21.47;40.72
51249;BME280;39642;47.556;18.728;2022-11-15T03:58:02;99893.59;;;21.47;40.62
51249;BME280;39642;47.556;18.728;2022-11-15T04:00:28;99888.22;;;21.48;40.56
51249;BME280;39642;47.556;18.728;2022-11-15T04:02:54;99880.25;;;21.48;40.46
51249;BME280;39642;47.556;18.728;2022-11-15T04:05:20;99880.25;;;21.48;40.49
51249;BME280;39642;47.556;18.728;2022-11-15T04:07:46;99884.59;;;21.49;40.56
51249;BME280;39642;47.556;18.728;2022-11-15T04:10:12;99882.91;;;21.48;40.39
51249;BME280;39642;47.556;18.728;2022-11-15T04:12:40;99875.81;;;21.49;40.39
51249;BME280;39642;47.556;18.728;2022-11-15T04:15:10;99875.81;;;21.49;40.43
51249;BME280;39642;47.556;18.728;2022-11-15T04:17:50;99885.44;;;21.50;40.57
51249;BME280;39642;47.556;18.728;2022-11-15T04:20:25;99874.00;;;21.49;40.46
51249;BME280;39642;47.556;18.728;2022-11-15T04:23:21;99884.59;;;21.49;40.53
51249;BME280;39642;47.556;18.728;2022-11-15T04:26:08;99881.00;;;21.50;40.35
51249;BME280;39642;47.556;18.728;2022-11-15T04:28:36;99884.59;;;21.49;40.51
51249;BME280;39642;47.556;18.728;2022-11-15T04:31:22;99888.22;;;21.48;40.68
51249;BME280;39642;47.556;18.728;2022-11-15T04:33:48;99891.69;;;21.49;40.44
51249;BME280;39642;47.556;18.728;2022-11-15T04:36:13;99895.28;;;21.48;40.35
51249;BME280;39642;47.556;18.728;2022-11-15T04:38:58;99885.66;;;21.47;40.59
51249;BME280;39642;47.556;18.728;2022-11-15T04:41:24;99885.66;;;21.47;40.62
51249;BME280;39642;47.556;18.728;2022-11-15T04:43:50;99882.16;;;21.46;40.72
51249;BME280;39642;47.556;18.728;2022-11-15T04:46:16;99883.06;;;21.45;40.65
51249;BME280;39642;47.556;18.728;2022-11-15T04:48:42;99878.75;;;21.44;40.66
51249;BME280;39642;47.556;18.728;2022-11-15T04:51:08;99876.09;;;21.44;40.78
51249;BME280;39642;47.556;18.728;2022-11-15T04:53:33;99876.09;;;21.44;40.66
51249;BME280;39642;47.556;18.728;2022-11-15T04:55:59;99875.25;;;21.44;40.67
51249;BME280;39642;47.556;18.728;2022-11-15T04:58:25;99877.03;;;21.43;40.80
51249;BME280;39642;47.556;18.728;2022-11-15T05:00:51;99875.34;;;21.42;40.53
51249;BME280;39642;47.556;18.728;2022-11-15T05:03:17;99866.53;;;21.41;40.62
51249;BME280;39642;47.556;18.728;2022-11-15T05:06:02;99871.84;;;21.41;40.97
51249;BME280;39642;47.556;18.728;2022-11-15T05:08:27;99865.66;;;21.41;40.77
51249;BME280;39642;47.556;18.728;2022-11-15T05:10:53;99868.31;;;21.41;40.84
51249;BME280;39642;47.556;18.728;2022-11-15T05:13:20;99865.66;;;21.41;40.86
51249;BME280;39642;47.556;18.728;2022-11-15T05:15:46;99860.38;;;21.41;40.96
51249;BME280;39642;47.556;18.728;2022-11-15T05:18:12;99862.94;;;21.42;40.96
51249;BME280;39642;47.556;18.728;2022-11-15T05:20:38;99862.00;;;21.44;40.74
51249;BME280;39642;47.556;18.728;2022-11-15T05:23:04;99854.06;;;21.44;40.60
51249;BME280;39642;47.556;18.728;2022-11-15T05:25:30;99852.12;;;21.46;40.33
51249;BME280;39642;47.556;18.728;2022-11-15T05:27:56;99853.00;;;21.46;40.11
51249;BME280;39642;47.556;18.728;2022-11-15T05:30:22;99852.91;;;21.48;40.00
51249;BME280;39642;47.556;18.728;2022-11-15T05:32:48;99843.91;;;21.50;39.73
51249;BME280;39642;47.556;18.728;2022-11-15T05:35:38;99845.53;;;21.53;39.73
51249;BME280;39642;47.556;18.728;2022-11-15T05:38:05;99844.56;;;21.54;39.30
51249;BME280;39642;47.556;18.728;2022-11-15T05:40:31;99842.59;;;21.57;39.31
51249;BME280;39642;47.556;18.728;2022-11-15T05:43:00;99831.88;;;21.59;38.92
51249;BME280;39642;47.556;18.728;2022-11-15T05:45:28;99830.84;;;21.61;38.71
51249;BME280;39642;47.556;18.728;2022-11-15T05:47:56;99826.28;;;21.63;38.28
51249;BME280;39642;47.556;18.728;2022-11-15T05:50:23;99827.06;;;21.66;39.07
51249;BME280;39642;47.556;18.728;2022-11-15T05:52:49;99825.06;;;21.69;40.64
51249;BME280;39642;47.556;18.728;2022-11-15T05:55:15;99824.03;;;21.72;40.87
51249;BME280;39642;47.556;18.728;2022-11-15T05:57:41;99828.38;;;21.73;39.13
51249;BME280;39642;47.556;18.728;2022-11-15T06:00:08;99826.59;;;21.73;39.39
51249;BME280;39642;47.556;18.728;2022-11-15T06:02:34;99825.63;;;21.74;38.87
51249;BME280;39642;47.556;18.728;2022-11-15T06:05:00;99830.94;;;21.74;38.72
51249;BME280;39642;47.556;18.728;2022-11-15T06:07:26;99832.72;;;21.74;38.76
51249;BME280;39642;47.556;18.728;2022-11-15T06:09:52;99838.78;;;21.76;40.34
51249;BME280;39642;47.556;18.728;2022-11-15T06:12:18;99845.78;;;21.77;41.04
51249;BME280;39642;47.556;18.728;2022-11-15T06:14:44;99845.78;;;21.77;40.89
51249;BME280;39642;47.556;18.728;2022-11-15T06:17:10;99844.94;;;21.76;40.57
51249;BME280;39642;47.556;18.728;2022-11-15T06:19:36;99851.19;;;21.75;40.57
51249;BME280;39642;47.556;18.728;2022-11-15T06:22:02;99847.69;;;21.75;40.31
51249;BME280;39642;47.556;18.728;2022-11-15T06:24:28;99847.69;;;21.75;40.88
51249;BME280;39642;47.556;18.728;2022-11-15T06:26:54;99836.22;;;21.74;40.39
51249;BME280;39642;47.556;18.728;2022-11-15T06:29:20;99841.34;;;21.77;40.69
51249;BME280;39642;47.556;18.728;2022-11-15T06:31:46;99844.72;;;21.79;40.71
51249;BME280;39642;47.556;18.728;2022-11-15T06:34:12;99842.19;;;21.78;40.18
51249;BME280;39642;47.556;18.728;2022-11-15T06:36:37;99841.44;;;21.76;40.33
51249;BME280;39642;47.556;18.728;2022-11-15T06:39:04;99839.72;;;21.75;40.64
51249;BME280;39642;47.556;18.728;2022-11-15T06:41:30;99840.69;;;21.74;40.48
51249;BME280;39642;47.556;18.728;2022-11-15T06:43:57;99847.69;;;21.75;40.95
51249;BME280;39642;47.556;18.728;2022-11-15T06:46:23;99833.87;;;21.70;40.57
51249;BME280;39642;47.556;18.728;2022-11-15T06:48:51;99848.09;;;21.69;40.65
51249;BME280;39642;47.556;18.728;2022-11-15T06:51:17;99845.53;;;21.67;40.67
51249;BME280;39642;47.556;18.728;2022-11-15T06:53:43;99850.16;;;21.63;40.35
51249;BME280;39642;47.556;18.728;2022-11-15T06:56:09;99845.81;;;21.62;40.14
51249;BME280;39642;47.556;18.728;2022-11-15T06:58:36;99850.25;;;21.62;40.77
51249;BME280;39642;47.556;18.728;2022-11-15T07:01:12;99847.50;;;21.63;40.71
51249;BME280;39642;47.556;18.728;2022-11-15T07:03:39;99844.00;;;21.63;39.58
51249;BME280;39642;47.556;18.728;2022-11-15T07:06:07;99833.31;;;21.65;40.37
51249;BME280;39642;47.556;18.728;2022-11-15T07:08:33;99827.06;;;21.66;40.30
51249;BME280;39642;47.556;18.728;2022-11-15T07:11:01;99827.81;;;21.68;40.16
51249;BME280;39642;47.556;18.728;2022-11-15T07:13:28;99825.00;;;21.71;40.12
51249;BME280;39642;47.556;18.728;2022-11-15T07:15:55;99819.56;;;21.72;39.77
51249;BME280;39642;47.556;18.728;2022-11-15T07:18:21;99826.47;;;21.75;40.00
51249;BME280;39642;47.556;18.728;2022-11-15T07:20:46;99813.22;;;21.75;39.69
51249;BME280;39642;47.556;18.728;2022-11-15T07:23:12;99813.13;;;21.76;39.98
51249;BME280;39642;47.556;18.728;2022-11-15T07:25:38;99826.19;;;21.79;39.36
51249;BME280;39642;47.556;18.728;2022-11-15T07:28:04;99834.88;;;21.81;39.15
51249;BME280;39642;47.556;18.728;2022-11-15T07:30:30;99834.81;;;21.83;39.46
51249;BME280;39642;47.556;18.728;2022-11-15T07:32:58;99833.75;;;21.86;39.30
51249;BME280;39642;47.556;18.728;2022-11-15T07:35:25;99837.25;;;21.86;39.71
51249;BME280;39642;47.556;18.728;2022-11-15T07:37:58;99822.09;;;21.88;39.51
51249;BME280;39642;47.556;18.728;2022-11-15T07:40:25;99821.16;;;21.89;39.10
51249;BME280;39642;47.556;18.728;2022-11-15T07:42:51;99816.63;;;21.91;39.37
51249;BME280;39642;47.556;18.728;2022-11-15T07:45:23;99820.19;;;21.90;39.30
51249;BME280;39642;47.556;18.728;2022-11-15T07:47:52;99819.28;;;21.91;41.58
51249;BME280;39642;47.556;18.728;2022-11-15T07:50:18;99820.97;;;21.92;40.33
51249;BME280;39642;47.556;18.728;2022-11-15T07:52:44;99814.72;;;21.93;40.08
51249;BME280;39642;47.556;18.728;2022-11-15T07:55:10;99821.72;;;21.94;40.43
51249;BME280;39642;47.556;18.728;2022-11-15T07:57:36;99823.31;;;21.97;41.23
51249;BME280;39642;47.556;18.728;2022-11-15T08:00:04;99821.50;;;21.97;42.68
51249;BME280;39642;47.556;18.728;2022-11-15T08:02:30;99822.25;;;21.99;42.44
51249;BME280;39642;47.556;18.728;2022-11-15T08:04:56;99815.06;;;22.01;42.32
51249;BME280;39642;47.556;18.728;2022-11-15T08:07:22;99809.00;;;21.99;42.06
51249;BME280;39642;47.556;18.728;2022-11-15T08:09:48;99816.13;;;21.99;41.93
51249;BME280;39642;47.556;18.728;2022-11-15T08:12:14;99812.72;;;21.97;43.80
51249;BME280;39642;47.556;18.728;2022-11-15T08:14:40;99811.88;;;21.96;45.14
51249;BME280;39642;47.556;18.728;2022-11-15T08:17:06;99808.38;;;21.96;45.61
51249;BME280;39642;47.556;18.728;2022-11-15T08:19:32;99803.16;;;21.94;46.11
51249;BME280;39642;47.556;18.728;2022-11-15T08:21:58;99802.41;;;21.92;45.88
51249;BME280;39642;47.556;18.728;2022-11-15T08:24:24;99793.81;;;21.89;44.46
51249;BME280;39642;47.556;18.728;2022-11-15T08:26:50;99795.72;;;21.87;44.14
51249;BME280;39642;47.556;18.728;2022-11-15T08:29:15;99792.19;;;21.86;42.93
51249;BME280;39642;47.556;18.728;2022-11-15T08:31:41;99786.88;;;21.86;43.88
51249;BME280;39642;47.556;18.728;2022-11-15T08:34:08;99777.16;;;21.87;43.74
51249;BME280;39642;47.556;18.728;2022-11-15T08:36:34;99781.50;;;21.88;44.52
51249;BME280;39642;47.556;18.728;2022-11-15T08:39:00;99790.28;;;21.88;45.53
51249;BME280;39642;47.556;18.728;2022-11-15T08:41:29;99776.28;;;21.86;42.86
51249;BME280;39642;47.556;18.728;2022-11-15T08:43:56;99772.03;;;21.83;42.43
51249;BME280;39642;47.556;18.728;2022-11-15T08:46:22;99761.44;;;21.83;42.22
51249;BME280;39642;47.556;18.728;2022-11-15T08:48:48;99755.38;;;21.81;42.97
51249;BME280;39642;47.556;18.728;2022-11-15T08:51:14;99760.78;;;21.80;43.13
51249;BME280;39642;47.556;18.728;2022-11-15T08:53:41;99759.84;;;21.81;43.54
51249;BME280;39642;47.556;18.728;2022-11-15T08:56:09;99756.87;;;21.86;44.27
51249;BME280;39642;47.556;18.728;2022-11-15T08:58:35;99757.72;;;21.86;43.80
51249;BME280;39642;47.556;18.728;2022-11-15T09:01:02;99752.88;;;21.93;44.89
51249;BME280;39642;47.556;18.728;2022-11-15T09:03:28;99751.72;;;21.97;44.50
51249;BME280;39642;47.556;18.728;2022-11-15T09:05:56;99752.41;;;22.00;44.24
51249;BME280;39642;47.556;18.728;2022-11-15T09:08:23;99755.03;;;22.00;43.80
51249;BME280;39642;47.556;18.728;2022-11-15T09:10:49;99773.41;;;22.03;43.84
51249;BME280;39642;47.556;18.728;2022-11-15T09:13:15;99764.50;;;22.04;43.85
51249;BME280;39642;47.556;18.728;2022-11-15T09:15:40;99765.34;;;22.05;43.96
51249;BME280;39642;47.556;18.728;2022-11-15T09:18:06;99755.59;;;22.06;43.98
51249;BME280;39642;47.556;18.728;2022-11-15T09:20:33;99755.59;;;22.06;44.35
51249;BME280;39642;47.556;18.728;2022-11-15T09:23:02;99760.88;;;22.06;44.25
51249;BME280;39642;47.556;18.728;2022-11-15T09:25:29;99759.09;;;22.06;44.25
51249;BME280;39642;47.556;18.728;2022-11-15T09:27:55;99753.91;;;22.04;44.70
51249;BME280;39642;47.556;18.728;2022-11-15T09:30:23;99756.66;;;22.03;44.45
51249;BME280;39642;47.556;18.728;2022-11-15T09:32:49;99752.28;;;22.02;44.34
51249;BME280;39642;47.556;18.728;2022-11-15T09:35:15;99762.16;;;22.00;43.97
51249;BME280;39642;47.556;18.728;2022-11-15T09:37:41;99751.66;;;21.98;43.94
51249;BME280;39642;47.556;18.728;2022-11-15T09:40:11;99750.88;;;21.96;43.76
51249;BME280;39642;47.556;18.728;2022-11-15T09:45:31;99740.28;;;21.96;44.25
51249;BME280;39642;47.556;18.728;2022-11-15T09:50:51;99736.88;;;21.94;45.52
51249;BME280;39642;47.556;18.728;2022-11-15T09:56:20;99725.53;;;21.92;44.13
51249;BME280;39642;47.556;18.728;2022-11-15T10:04:16;99711.19;;;21.82;43.88
51249;BME280;39642;47.556;18.728;2022-11-15T10:06:49;99711.06;;;21.83;44.08
51249;BME280;39642;47.556;18.728;2022-11-15T10:09:24;99710.97;;;21.85;44.28
51249;BME280;39642;47.556;18.728;2022-11-15T10:11:52;99710.00;;;21.86;44.58
51249;BME280;39642;47.556;18.728;2022-11-15T10:14:23;99706.44;;;21.87;44.41
51249;BME280;39642;47.556;18.728;2022-11-15T10:22:44;99696.37;;;21.92;44.29
51249;BME280;39642;47.556;18.728;2022-11-15T10:25:16;99694.47;;;21.94;44.19
51249;BME280;39642;47.556;18.728;2022-11-15T10:27:54;99683.78;;;21.96;44.14
51249;BME280;39642;47.556;18.728;2022-11-15T10:30:21;99688.00;;;21.98;44.05
51249;BME280;39642;47.556;18.728;2022-11-15T10:32:48;99681.75;;;21.99;43.99
51249;BME280;39642;47.556;18.728;2022-11-15T10:35:26;99682.63;;;22.00;44.07
51249;BME280;39642;47.556;18.728;2022-11-15T10:38:12;99673.69;;;22.01;44.27
51249;BME280;39642;47.556;18.728;2022-11-15T10:40:40;99674.44;;;22.03;44.00
51249;BME280;39642;47.556;18.728;2022-11-15T10:43:14;99674.34;;;22.04;43.18
51249;BME280;39642;47.556;18.728;2022-11-15T10:45:41;99678.69;;;22.06;43.05
51249;BME280;39642;47.556;18.728;2022-11-15T10:50:41;99657.56;;;22.04;44.36
51249;BME280;39642;47.556;18.728;2022-11-15T10:55:47;99657.34;;;21.94;43.91
51249;BME280;39642;47.556;18.728;2022-11-15T10:58:44;99654.78;;;21.93;44.20
51249;BME280;39642;47.556;18.728;2022-11-15T11:01:18;99655.44;;;21.96;44.90
51249;BME280;39642;47.556;18.728;2022-11-15T11:03:58;99646.53;;;21.97;47.96
51249;BME280;39642;47.556;18.728;2022-11-15T11:06:25;99634.25;;;21.96;45.63
51249;BME280;39642;47.556;18.728;2022-11-15T11:09:03;99641.44;;;21.94;45.21
51249;BME280;39642;47.556;18.728;2022-11-15T11:11:47;99638.69;;;21.96;45.15
51249;BME280;39642;47.556;18.728;2022-11-15T11:14:23;99616.66;;;21.95;45.10
51249;BME280;39642;47.556;18.728;2022-11-15T11:17:17;99615.78;;;21.95;45.23
51249;BME280;39642;47.556;18.728;2022-11-15T11:20:25;99618.44;;;21.95;45.21
51249;BME280;39642;47.556;18.728;2022-11-15T11:25:40;99616.66;;;21.95;45.47
51249;BME280;39642;47.556;18.728;2022-11-15T11:31:04;99618.34;;;21.96;45.30
51249;BME280;39642;47.556;18.728;2022-11-15T11:33:44;99617.50;;;21.96;45.27
51249;BME280;39642;47.556;18.728;2022-11-15T11:36:24;99613.13;;;21.95;45.24
51249;BME280;39642;47.556;18.728;2022-11-15T11:39:18;99615.16;;;21.91;45.22
51249;BME280;39642;47.556;18.728;2022-11-15T11:42:29;99614.28;;;21.91;45.61
51249;BME280;39642;47.556;18.728;2022-11-15T11:45:15;99603.50;;;21.94;45.82
51249;BME280;39642;47.556;18.728;2022-11-15T11:47:48;99600.00;;;21.93;46.13
51249;BME280;39642;47.556;18.728;2022-11-15T11:50:22;99594.56;;;21.95;46.08
51249;BME280;39642;47.556;18.728;2022-11-15T11:52:55;99595.22;;;21.98;46.97
51249;BME280;39642;47.556;18.728;2022-11-15T11:55:33;99590.66;;;22.00;46.90
51249;BME280;39642;47.556;18.728;2022-11-15T12:02:01;99583.25;;;22.06;47.31
